createdAt,value
2022-11-01T00:00:01.955Z,0.00
2022-11-01T00:01:02.311Z,0.00
2022-11-01T00:02:02.515Z,0.00
2022-11-01T00:03:02.568Z,0.00
2022-11-01T00:04:02.350Z,0.00
2022-11-01T00:05:02.215Z,0.00
2022-11-01T00:06:02.478Z,0.00
2022-11-01T00:07:02.699Z,0.00
2022-11-01T00:08:03.097Z,0.00
2022-11-01T00:09:02.709Z,0.00
2022-11-01T00:10:02.592Z,0.00
2022-11-01T00:11:02.712Z,0.00
2022-11-01T00:12:02.913Z,0.00
2022-11-01T00:13:03.248Z,0.00
2022-11-01T00:14:03.236Z,0.00
2022-11-01T00:15:03.143Z,0.00
2022-11-01T00:16:03.069Z,0.00
2022-11-01T00:17:01.956Z,0.00
2022-11-01T00:18:02.211Z,0.00
2022-11-01T00:19:02.062Z,0.00
2022-11-01T00:20:02.094Z,0.00
2022-11-01T00:21:02.045Z,0.00
2022-11-01T00:22:02.868Z,0.00
2022-11-01T00:23:02.933Z,0.00
2022-11-01T00:24:02.574Z,0.00
2022-11-01T00:25:03.049Z,0.00
2022-11-01T00:26:03.209Z,0.00
2022-11-01T00:27:02.405Z,0.00
2022-11-01T00:28:02.176Z,0.00
2022-11-01T00:29:02.058Z,0.00
2022-11-01T00:30:02.302Z,0.00
2022-11-01T00:31:02.462Z,0.00
2022-11-01T00:32:02.555Z,0.00
2022-11-01T00:33:03.007Z,0.00
2022-11-01T00:34:02.027Z,0.00
2022-11-01T00:35:02.133Z,0.00
2022-11-01T00:36:02.100Z,0.00
2022-11-01T00:37:03.089Z,0.00
2022-11-01T00:38:03.624Z,0.00
2022-11-01T00:39:02.579Z,0.00
2022-11-01T00:40:02.923Z,0.00
2022-11-01T00:41:02.700Z,0.00
2022-11-01T00:42:02.729Z,0.00
2022-11-01T00:43:02.524Z,0.00
2022-11-01T00:44:02.307Z,0.00
2022-11-01T00:45:02.626Z,0.00
2022-11-01T00:46:02.220Z,0.00
2022-11-01T00:47:02.823Z,0.00
2022-11-01T00:48:03.338Z,0.00
2022-11-01T00:49:02.960Z,0.00
2022-11-01T00:50:02.883Z,0.00
2022-11-01T00:51:02.828Z,0.00
2022-11-01T00:52:02.711Z,0.00
2022-11-01T00:53:02.465Z,0.00
2022-11-01T00:54:02.661Z,0.00
2022-11-01T00:55:02.521Z,0.00
2022-11-01T00:56:02.453Z,0.00
2022-11-01T00:57:03.056Z,0.00
2022-11-01T00:58:03.135Z,0.00
2022-11-01T00:59:03.254Z,0.00
2022-11-01T01:00:02.692Z,0.00
2022-11-01T01:01:02.844Z,0.00
2022-11-01T01:02:02.355Z,0.00
2022-11-01T01:03:02.546Z,0.00
2022-11-01T01:04:02.709Z,0.00
2022-11-01T01:05:02.743Z,0.00
2022-11-01T01:06:02.715Z,0.00
2022-11-01T01:07:02.685Z,0.00
2022-11-01T01:08:02.829Z,0.00
2022-11-01T01:09:02.485Z,0.00
2022-11-01T01:10:02.923Z,0.00
2022-11-01T01:11:02.401Z,0.00
2022-11-01T01:12:02.176Z,0.00
2022-11-01T01:13:01.993Z,0.00
2022-11-01T01:14:01.913Z,0.00
2022-11-01T01:15:01.731Z,0.00
2022-11-01T01:16:01.948Z,0.00
2022-11-01T01:17:02.573Z,0.00
2022-11-01T01:18:02.721Z,0.00
2022-11-01T01:19:02.332Z,0.00
2022-11-01T01:20:02.221Z,0.00
2022-11-01T01:21:02.185Z,0.00
2022-11-01T01:22:02.531Z,0.00
2022-11-01T01:23:02.880Z,0.00
2022-11-01T01:24:02.954Z,0.00
2022-11-01T01:25:02.488Z,0.00
2022-11-01T01:26:02.750Z,0.00
2022-11-01T01:27:01.969Z,0.00
2022-11-01T01:28:02.771Z,0.00
2022-11-01T01:29:02.084Z,0.00
2022-11-01T01:30:02.437Z,0.00
2022-11-01T01:31:02.415Z,0.00
2022-11-01T01:32:02.470Z,0.00
2022-11-01T01:33:02.651Z,0.00
2022-11-01T01:34:02.744Z,0.00
2022-11-01T01:35:02.874Z,0.00
2022-11-01T01:36:02.511Z,0.00
2022-11-01T01:37:02.020Z,0.00
2022-11-01T01:38:02.109Z,0.00
2022-11-01T01:39:02.055Z,0.00
2022-11-01T01:40:02.149Z,0.00
2022-11-01T01:41:02.180Z,0.00
2022-11-01T01:42:02.330Z,0.00
2022-11-01T01:43:02.993Z,0.00
2022-11-01T01:44:02.581Z,0.00
2022-11-01T01:45:02.507Z,0.00
2022-11-01T01:46:02.541Z,0.00
2022-11-01T01:47:02.195Z,0.00
2022-11-01T01:48:02.496Z,0.00
2022-11-01T01:49:01.912Z,0.00
2022-11-01T01:50:02.286Z,0.00
2022-11-01T01:51:02.064Z,0.00
2022-11-01T01:52:02.358Z,0.00
2022-11-01T01:53:02.932Z,0.00
2022-11-01T01:54:02.798Z,0.00
2022-11-01T01:55:02.168Z,0.00
2022-11-01T01:56:02.495Z,0.00
2022-11-01T01:57:02.844Z,0.00
2022-11-01T01:58:03.143Z,0.00
2022-11-01T01:59:03.279Z,0.00
2022-11-01T02:00:02.636Z,0.00
2022-11-01T02:01:03.026Z,0.00
2022-11-01T02:02:03.663Z,0.00
2022-11-01T02:03:04.035Z,0.00
2022-11-01T02:04:03.478Z,0.00
2022-11-01T02:05:03.580Z,0.00
2022-11-01T02:06:03.264Z,0.00
2022-11-01T02:07:03.396Z,0.00
2022-11-01T02:08:04.239Z,0.00
2022-11-01T02:09:03.887Z,0.00
2022-11-01T02:10:03.377Z,0.00
2022-11-01T02:11:03.962Z,0.00
2022-11-01T02:12:03.444Z,0.00
2022-11-01T02:13:03.811Z,0.00
2022-11-01T02:14:03.486Z,0.00
2022-11-01T02:15:03.546Z,0.00
2022-11-01T02:16:03.781Z,0.00
2022-11-01T02:17:07.073Z,0.00
2022-11-01T02:18:03.722Z,0.00
2022-11-01T02:19:03.119Z,0.00
2022-11-01T02:20:03.335Z,0.00
2022-11-01T02:21:03.321Z,0.00
2022-11-01T02:22:03.715Z,0.00
2022-11-01T02:23:03.902Z,0.00
2022-11-01T02:24:03.493Z,0.00
2022-11-01T02:25:03.994Z,0.00
2022-11-01T02:26:03.575Z,0.00
2022-11-01T02:27:02.790Z,0.00
2022-11-01T02:28:03.105Z,0.00
2022-11-01T02:29:05.683Z,0.00
2022-11-01T02:30:02.919Z,0.00
2022-11-01T02:31:02.864Z,0.00
2022-11-01T02:32:02.855Z,0.00
2022-11-01T02:33:03.386Z,0.00
2022-11-01T02:34:03.377Z,0.00
2022-11-01T02:35:03.393Z,0.00
2022-11-01T02:36:03.392Z,0.00
2022-11-01T02:37:03.238Z,0.00
2022-11-01T02:38:03.446Z,0.00
2022-11-01T02:39:03.234Z,0.00
2022-11-01T02:40:03.538Z,0.00
2022-11-01T02:41:03.605Z,0.00
2022-11-01T02:42:03.185Z,0.00
2022-11-01T02:43:03.325Z,0.00
2022-11-01T02:44:02.894Z,0.00
2022-11-01T02:45:02.864Z,0.00
2022-11-01T02:46:03.148Z,0.00
2022-11-01T02:47:03.036Z,0.00
2022-11-01T02:48:03.622Z,0.00
2022-11-01T02:49:03.707Z,0.00
2022-11-01T02:50:03.384Z,0.00
2022-11-01T02:51:03.260Z,0.00
2022-11-01T02:52:03.708Z,0.00
2022-11-01T02:53:04.055Z,0.00
2022-11-01T02:54:04.107Z,0.00
2022-11-01T02:55:03.808Z,0.00
2022-11-01T02:56:04.090Z,0.00
2022-11-01T02:57:02.726Z,0.00
2022-11-01T02:58:03.312Z,0.00
2022-11-01T02:59:03.050Z,0.00
2022-11-01T03:00:03.296Z,0.00
2022-11-01T03:01:02.845Z,0.00
2022-11-01T03:02:02.996Z,0.00
2022-11-01T03:03:02.433Z,0.00
2022-11-01T03:04:02.893Z,0.00
2022-11-01T03:05:02.845Z,0.00
2022-11-01T03:06:02.501Z,0.00
2022-11-01T03:07:02.877Z,0.00
2022-11-01T03:08:03.061Z,0.00
2022-11-01T03:09:03.091Z,0.00
2022-11-01T03:10:02.888Z,0.00
2022-11-01T03:11:02.672Z,0.00
2022-11-01T03:12:02.868Z,0.00
2022-11-01T03:13:03.093Z,0.00
2022-11-01T03:14:02.706Z,0.00
2022-11-01T03:15:03.198Z,0.00
2022-11-01T03:16:02.713Z,0.00
2022-11-01T03:17:02.443Z,0.00
2022-11-01T03:18:02.845Z,0.00
2022-11-01T03:19:02.759Z,0.00
2022-11-01T03:20:02.744Z,0.00
2022-11-01T03:21:02.822Z,0.00
2022-11-01T03:22:02.413Z,0.00
2022-11-01T03:23:02.663Z,0.00
2022-11-01T03:24:02.564Z,0.00
2022-11-01T03:25:02.852Z,0.00
2022-11-01T03:26:02.694Z,0.00
2022-11-01T03:27:02.401Z,0.00
2022-11-01T03:28:02.745Z,0.00
2022-11-01T03:29:02.628Z,0.00
2022-11-01T03:30:02.527Z,0.00
2022-11-01T03:31:02.411Z,0.00
2022-11-01T03:32:02.960Z,0.00
2022-11-01T03:33:03.253Z,0.00
2022-11-01T03:34:03.310Z,0.00
2022-11-01T03:35:02.865Z,0.00
2022-11-01T03:36:03.403Z,0.00
2022-11-01T03:37:02.859Z,0.00
2022-11-01T03:38:02.326Z,0.00
2022-11-01T03:39:02.909Z,0.00
2022-11-01T03:40:02.878Z,0.00
2022-11-01T03:41:02.505Z,0.00
2022-11-01T03:42:03.517Z,0.00
2022-11-01T03:43:03.601Z,0.00
2022-11-01T03:44:02.915Z,0.00
2022-11-01T03:45:02.943Z,0.00
2022-11-01T03:46:03.494Z,0.00
2022-11-01T03:47:02.849Z,0.00
2022-11-01T03:48:03.628Z,0.00
2022-11-01T03:49:02.682Z,0.00
2022-11-01T03:50:02.564Z,0.00
2022-11-01T03:51:02.720Z,0.00
2022-11-01T03:52:03.544Z,0.00
2022-11-01T03:53:03.310Z,0.00
2022-11-01T03:54:03.291Z,0.00
2022-11-01T03:55:03.527Z,0.00
2022-11-01T03:56:03.870Z,0.00
2022-11-01T03:57:02.990Z,0.00
2022-11-01T03:58:02.804Z,0.00
2022-11-01T03:59:02.927Z,0.00
2022-11-01T04:00:02.381Z,0.00
2022-11-01T04:01:02.719Z,0.00
2022-11-01T04:02:03.548Z,0.00
2022-11-01T04:03:03.537Z,0.00
2022-11-01T04:04:03.258Z,0.00
2022-11-01T04:05:03.152Z,0.00
2022-11-01T04:06:03.622Z,0.00
2022-11-01T04:07:02.760Z,0.00
2022-11-01T04:08:03.222Z,0.00
2022-11-01T04:09:03.303Z,0.00
2022-11-01T04:10:03.301Z,0.00
2022-11-01T04:11:03.118Z,0.00
2022-11-01T04:12:02.676Z,0.00
2022-11-01T04:13:03.000Z,0.00
2022-11-01T04:14:02.498Z,0.00
2022-11-01T04:15:02.926Z,0.00
2022-11-01T04:16:02.450Z,0.00
2022-11-01T04:17:02.842Z,0.00
2022-11-01T04:18:02.727Z,0.00
2022-11-01T04:19:02.755Z,0.00
2022-11-01T04:20:02.973Z,0.00
2022-11-01T04:21:02.672Z,0.00
2022-11-01T04:22:03.352Z,0.00
2022-11-01T04:23:03.731Z,0.00
2022-11-01T04:24:02.853Z,0.00
2022-11-01T04:25:03.498Z,0.00
2022-11-01T04:26:03.201Z,0.00
2022-11-01T04:27:02.911Z,0.00
2022-11-01T04:28:02.453Z,0.00
2022-11-01T04:29:02.625Z,0.00
2022-11-01T04:30:02.750Z,0.00
2022-11-01T04:31:02.409Z,0.00
2022-11-01T04:32:03.027Z,0.00
2022-11-01T04:33:03.298Z,0.00
2022-11-01T04:34:03.030Z,0.00
2022-11-01T04:35:03.240Z,0.00
2022-11-01T04:36:03.188Z,0.00
2022-11-01T04:37:02.823Z,0.00
2022-11-01T04:38:02.617Z,0.00
2022-11-01T04:39:02.755Z,0.00
2022-11-01T04:40:02.624Z,0.00
2022-11-01T04:41:02.488Z,0.00
2022-11-01T04:42:03.010Z,0.00
2022-11-01T04:43:02.865Z,0.00
2022-11-01T04:44:02.999Z,0.00
2022-11-01T04:45:02.906Z,0.00
2022-11-01T04:46:02.625Z,0.00
2022-11-01T04:47:03.240Z,0.00
2022-11-01T04:48:04.131Z,0.00
2022-11-01T04:49:02.918Z,0.00
2022-11-01T04:50:03.607Z,0.00
2022-11-01T04:51:03.412Z,0.00
2022-11-01T04:52:03.127Z,0.00
2022-11-01T04:53:03.418Z,0.00
2022-11-01T04:54:03.084Z,0.00
2022-11-01T04:55:02.507Z,0.00
2022-11-01T04:56:02.986Z,0.00
2022-11-01T04:57:03.660Z,0.00
2022-11-01T04:58:02.927Z,0.00
2022-11-01T04:59:03.199Z,0.00
2022-11-01T05:00:03.320Z,0.00
2022-11-01T05:01:03.507Z,0.00
2022-11-01T05:02:03.587Z,0.00
2022-11-01T05:03:03.906Z,0.00
2022-11-01T05:04:03.115Z,0.00
2022-11-01T05:05:02.936Z,0.00
2022-11-01T05:06:03.073Z,0.00
2022-11-01T05:07:02.294Z,0.00
2022-11-01T05:09:02.926Z,0.00
2022-11-01T05:10:02.646Z,0.00
2022-11-01T05:11:02.517Z,0.00
2022-11-01T05:12:02.837Z,0.00
2022-11-01T05:13:03.673Z,0.00
2022-11-01T05:14:02.830Z,0.00
2022-11-01T05:15:02.927Z,0.00
2022-11-01T05:17:02.888Z,0.00
2022-11-01T05:18:02.808Z,0.00
2022-11-01T05:19:03.132Z,0.00
2022-11-01T05:20:02.877Z,0.00
2022-11-01T05:21:02.893Z,0.00
2022-11-01T05:22:02.869Z,0.00
2022-11-01T05:23:03.479Z,0.00
2022-11-01T05:24:03.477Z,0.00
2022-11-01T05:25:03.159Z,0.00
2022-11-01T05:26:03.128Z,0.00
2022-11-01T05:27:03.696Z,0.00
2022-11-01T05:28:03.885Z,0.00
2022-11-01T05:29:09.083Z,0.00
2022-11-01T05:30:03.311Z,0.00
2022-11-01T05:31:03.332Z,0.00
2022-11-01T05:32:02.200Z,0.00
2022-11-01T05:33:02.368Z,0.00
2022-11-01T05:34:02.274Z,0.00
2022-11-01T05:35:02.821Z,0.00
2022-11-01T05:36:02.693Z,0.00
2022-11-01T05:37:02.622Z,0.00
2022-11-01T05:38:02.982Z,0.00
2022-11-01T05:39:02.877Z,0.00
2022-11-01T05:40:02.776Z,0.00
2022-11-01T05:41:02.931Z,0.00
2022-11-01T05:42:03.131Z,0.00
2022-11-01T05:43:03.166Z,0.00
2022-11-01T05:44:02.958Z,0.00
2022-11-01T05:45:03.243Z,0.00
2022-11-01T05:46:03.077Z,0.00
2022-11-01T05:47:03.384Z,0.00
2022-11-01T05:48:03.661Z,0.00
2022-11-01T05:49:03.333Z,0.00
2022-11-01T05:50:03.545Z,0.00
2022-11-01T05:51:03.059Z,0.00
2022-11-01T05:52:02.878Z,0.00
2022-11-01T05:53:03.175Z,0.00
2022-11-01T05:54:02.434Z,0.00
2022-11-01T05:55:02.351Z,0.00
2022-11-01T05:56:02.367Z,4.00
2022-11-01T05:57:02.444Z,4.00
2022-11-01T05:58:02.956Z,4.00
2022-11-01T05:59:02.612Z,4.00
2022-11-01T06:00:02.574Z,8.00
2022-11-01T06:01:02.855Z,4.00
2022-11-01T06:02:03.403Z,4.00
2022-11-01T06:03:03.296Z,8.00
2022-11-01T06:04:02.899Z,8.00
2022-11-01T06:05:03.361Z,12.00
2022-11-01T06:06:03.059Z,16.00
2022-11-01T06:07:02.196Z,20.00
2022-11-01T06:08:02.121Z,20.00
2022-11-01T06:09:02.092Z,24.00
2022-11-01T06:10:02.020Z,28.00
2022-11-01T06:11:02.507Z,32.00
2022-11-01T06:12:02.504Z,40.00
2022-11-01T06:13:02.768Z,40.00
2022-11-01T06:14:02.291Z,48.00
2022-11-01T06:15:02.353Z,52.00
2022-11-01T06:16:02.593Z,60.00
2022-11-01T06:17:02.404Z,64.00
2022-11-01T06:18:03.245Z,72.00
2022-11-01T06:19:02.776Z,76.00
2022-11-01T06:20:02.602Z,80.00
2022-11-01T06:21:02.924Z,88.00
2022-11-01T06:22:02.969Z,96.00
2022-11-01T06:23:03.163Z,104.00
2022-11-01T06:24:02.985Z,108.00
2022-11-01T06:25:02.581Z,116.00
2022-11-01T06:26:02.525Z,112.00
2022-11-01T06:27:02.928Z,108.00
2022-11-01T06:28:03.767Z,120.00
2022-11-01T06:29:03.213Z,136.00
2022-11-01T06:30:03.313Z,160.00
2022-11-01T06:31:02.876Z,160.00
2022-11-01T06:32:02.991Z,164.00
2022-11-01T06:33:03.794Z,168.00
2022-11-01T06:34:03.429Z,184.00
2022-11-01T06:35:03.199Z,208.00
2022-11-01T06:36:02.848Z,236.00
2022-11-01T06:37:02.359Z,284.00
2022-11-01T06:38:02.282Z,332.00
2022-11-01T06:39:02.367Z,364.00
2022-11-01T06:40:02.538Z,392.00
2022-11-01T06:41:02.627Z,428.00
2022-11-01T06:42:02.521Z,420.00
2022-11-01T06:43:03.407Z,468.00
2022-11-01T06:44:02.812Z,492.00
2022-11-01T06:45:03.103Z,536.00
2022-11-01T06:46:02.556Z,592.00
2022-11-01T06:47:02.311Z,632.00
2022-11-01T06:48:02.973Z,680.00
2022-11-01T06:49:02.348Z,692.00
2022-11-01T06:50:02.425Z,724.00
2022-11-01T06:51:02.444Z,756.00
2022-11-01T06:52:02.697Z,808.00
2022-11-01T06:53:02.774Z,840.00
2022-11-01T06:54:02.593Z,872.00
2022-11-01T06:55:02.416Z,892.00
2022-11-01T06:56:02.195Z,908.00
2022-11-01T06:57:02.821Z,940.00
2022-11-01T06:58:03.136Z,956.00
2022-11-01T06:59:02.510Z,980.00
2022-11-01T07:00:02.720Z,1008.00
2022-11-01T07:01:02.890Z,1052.00
2022-11-01T07:02:02.273Z,1104.00
2022-11-01T07:03:02.265Z,1168.00
2022-11-01T07:04:02.055Z,1220.00
2022-11-01T07:05:01.934Z,1264.00
2022-11-01T07:06:02.044Z,1328.00
2022-11-01T07:07:02.729Z,1420.00
2022-11-01T07:08:02.867Z,1492.00
2022-11-01T07:09:02.968Z,1580.00
2022-11-01T07:10:02.514Z,1652.00
2022-11-01T07:11:02.436Z,1708.00
2022-11-01T07:12:02.229Z,1752.00
2022-11-01T07:13:02.134Z,1792.00
2022-11-01T07:14:02.345Z,1856.00
2022-11-01T07:15:02.355Z,1900.00
2022-11-01T07:16:02.077Z,1956.00
2022-11-01T07:17:02.424Z,1992.00
2022-11-01T07:18:02.844Z,2008.00
2022-11-01T07:19:02.252Z,2028.00
2022-11-01T07:20:02.044Z,2028.00
2022-11-01T07:21:02.895Z,2016.00
2022-11-01T07:22:02.189Z,1988.00
2022-11-01T07:23:02.953Z,1964.00
2022-11-01T07:24:02.455Z,1940.00
2022-11-01T07:25:02.441Z,1904.00
2022-11-01T07:26:02.463Z,1876.00
2022-11-01T07:27:02.184Z,1868.00
2022-11-01T07:28:02.141Z,1856.00
2022-11-01T07:29:01.787Z,1844.00
2022-11-01T07:30:01.878Z,1828.00
2022-11-01T07:31:02.420Z,1808.00
2022-11-01T07:32:02.584Z,1772.00
2022-11-01T07:33:02.777Z,1720.00
2022-11-01T07:34:02.212Z,1672.00
2022-11-01T07:35:02.612Z,1616.00
2022-11-01T07:36:02.672Z,1592.00
2022-11-01T07:37:02.476Z,1564.00
2022-11-01T07:38:05.075Z,1532.00
2022-11-01T07:39:02.292Z,1508.00
2022-11-01T07:40:02.822Z,1480.00
2022-11-01T07:41:02.476Z,1516.00
2022-11-01T07:42:02.206Z,1524.00
2022-11-01T07:43:01.985Z,1532.00
2022-11-01T07:44:02.189Z,1560.00
2022-11-01T07:45:02.048Z,1568.00
2022-11-01T07:46:02.199Z,1472.00
2022-11-01T07:47:02.687Z,1492.00
2022-11-01T07:48:02.955Z,1624.00
2022-11-01T07:49:02.339Z,1612.00
2022-11-01T07:50:02.524Z,1644.00
2022-11-01T07:51:02.722Z,1692.00
2022-11-01T07:52:03.159Z,1704.00
2022-11-01T07:53:03.035Z,1688.00
2022-11-01T07:54:02.633Z,1660.00
2022-11-01T07:55:02.870Z,1708.00
2022-11-01T07:56:03.011Z,1688.00
2022-11-01T07:57:02.773Z,1692.00
2022-11-01T07:58:03.059Z,1668.00
2022-11-01T07:59:02.766Z,1672.00
2022-11-01T08:00:02.462Z,1652.00
2022-11-01T08:01:02.647Z,1636.00
2022-11-01T08:02:06.969Z,1640.00
2022-11-01T08:03:03.966Z,1644.00
2022-11-01T08:04:03.361Z,1652.00
2022-11-01T08:05:03.249Z,1652.00
2022-11-01T08:06:02.835Z,1668.00
2022-11-01T08:07:03.302Z,1700.00
2022-11-01T08:08:03.871Z,1780.00
2022-11-01T08:09:03.270Z,1816.00
2022-11-01T08:10:03.173Z,1904.00
2022-11-01T08:11:03.391Z,1956.00
2022-11-01T08:12:03.062Z,2040.00
2022-11-01T08:13:02.969Z,2092.00
2022-11-01T08:14:05.175Z,2164.00
2022-11-01T08:15:02.529Z,2188.00
2022-11-01T08:16:02.905Z,2264.00
2022-11-01T08:17:03.595Z,2372.00
2022-11-01T08:18:03.783Z,2428.00
2022-11-01T08:19:03.450Z,2524.00
2022-11-01T08:20:03.356Z,2484.00
2022-11-01T08:21:03.439Z,2420.00
2022-11-01T08:22:02.547Z,2456.00
2022-11-01T08:23:02.855Z,2532.00
2022-11-01T08:24:02.958Z,2608.00
2022-11-01T08:25:02.711Z,2920.00
2022-11-01T08:26:02.820Z,3704.00
2022-11-01T08:27:03.413Z,4500.00
2022-11-01T08:28:03.276Z,6412.00
2022-11-01T08:29:03.248Z,7212.00
2022-11-01T08:30:03.273Z,7868.00
2022-11-01T08:31:03.158Z,8584.00
2022-11-01T08:32:03.440Z,8744.00
2022-11-01T08:33:03.861Z,9028.00
2022-11-01T08:34:03.075Z,9128.00
2022-11-01T08:35:03.069Z,9376.00
2022-11-01T08:36:03.102Z,9404.00
2022-11-01T08:37:02.558Z,9660.00
2022-11-01T08:38:02.644Z,9744.00
2022-11-01T08:39:03.204Z,9792.00
2022-11-01T08:40:02.870Z,9980.00
2022-11-01T08:41:02.807Z,9892.00
2022-11-01T08:42:02.884Z,10124.00
2022-11-01T08:43:03.241Z,10236.00
2022-11-01T08:44:03.206Z,10260.00
2022-11-01T08:45:03.398Z,10256.00
2022-11-01T08:46:02.841Z,10360.00
2022-11-01T08:47:02.945Z,10240.00
2022-11-01T08:48:03.211Z,10156.00
2022-11-01T08:49:03.225Z,9828.00
2022-11-01T08:50:04.936Z,8972.00
2022-11-01T08:51:03.134Z,8548.00
2022-11-01T08:52:03.289Z,7412.00
2022-11-01T08:53:03.792Z,4532.00
2022-11-01T08:54:03.873Z,5124.00
2022-11-01T08:55:03.503Z,4824.00
2022-11-01T08:56:03.868Z,4760.00
2022-11-01T08:57:02.611Z,7700.00
2022-11-01T08:58:02.824Z,5408.00
2022-11-01T08:59:02.582Z,8096.00
2022-11-01T09:00:02.707Z,9348.00
2022-11-01T09:01:03.332Z,8360.00
2022-11-01T09:02:01.987Z,7116.00
2022-11-01T09:03:02.002Z,4852.00
2022-11-01T09:04:01.805Z,3860.00
2022-11-01T09:05:01.781Z,3812.00
2022-11-01T09:06:02.283Z,3424.00
2022-11-01T09:07:02.018Z,3656.00
2022-11-01T09:08:02.467Z,4136.00
2022-11-01T09:09:02.217Z,7228.00
2022-11-01T09:10:02.283Z,7560.00
2022-11-01T09:11:02.330Z,10628.00
2022-11-01T09:12:02.217Z,10328.00
2022-11-01T09:13:02.606Z,4264.00
2022-11-01T09:14:02.771Z,5484.00
2022-11-01T09:15:02.711Z,6308.00
2022-11-01T09:16:02.688Z,6276.00
2022-11-01T09:17:02.294Z,6152.00
2022-11-01T09:18:02.321Z,12288.00
2022-11-01T09:19:02.397Z,6260.00
2022-11-01T09:20:02.755Z,8424.00
2022-11-01T09:21:02.796Z,12516.00
2022-11-01T09:22:02.599Z,13216.00
2022-11-01T09:23:03.348Z,14912.00
2022-11-01T09:24:02.793Z,7320.00
2022-11-01T09:25:02.908Z,10316.00
2022-11-01T09:26:02.788Z,9908.00
2022-11-01T09:27:02.118Z,9712.00
2022-11-01T09:28:02.137Z,4440.00
2022-11-01T09:29:02.020Z,2368.00
2022-11-01T09:30:02.031Z,3376.00
2022-11-01T09:31:19.496Z,7020.00
2022-11-01T09:32:01.904Z,5892.00
2022-11-01T09:33:02.045Z,4472.00
2022-11-01T09:34:02.336Z,6804.00
2022-11-01T09:35:02.006Z,6412.00
2022-11-01T09:36:02.319Z,9616.00
2022-11-01T09:37:02.287Z,8256.00
2022-11-01T09:38:02.184Z,6252.00
2022-11-01T09:39:02.151Z,7048.00
2022-11-01T09:40:02.741Z,5956.00
2022-11-01T09:41:02.678Z,5404.00
2022-11-01T09:42:02.655Z,4740.00
2022-11-01T09:43:03.017Z,4376.00
2022-11-01T09:44:03.086Z,4224.00
2022-11-01T09:45:02.871Z,4188.00
2022-11-01T09:46:02.819Z,6120.00
2022-11-01T09:47:02.815Z,7204.00
2022-11-01T09:48:02.322Z,7540.00
2022-11-01T09:49:02.490Z,7668.00
2022-11-01T09:50:02.390Z,7672.00
2022-11-01T09:51:02.523Z,6264.00
2022-11-01T09:52:01.939Z,8140.00
2022-11-01T09:53:01.719Z,7724.00
2022-11-01T09:54:01.807Z,6636.00
2022-11-01T09:55:01.873Z,7628.00
2022-11-01T09:56:01.812Z,4220.00
2022-11-01T09:57:02.596Z,5032.00
2022-11-01T09:58:02.977Z,6164.00
2022-11-01T09:59:02.954Z,5120.00
2022-11-01T10:00:02.681Z,6636.00
2022-11-01T10:01:02.514Z,6636.00
2022-11-01T10:02:05.822Z,5052.00
2022-11-01T10:03:01.977Z,6968.00
2022-11-01T10:04:01.910Z,5908.00
2022-11-01T10:05:01.971Z,6600.00
2022-11-01T10:06:01.854Z,6924.00
2022-11-01T10:07:02.494Z,6248.00
2022-11-01T10:08:03.042Z,5616.00
2022-11-01T10:09:02.465Z,6072.00
2022-11-01T10:10:02.205Z,6600.00
2022-11-01T10:11:02.199Z,6516.00
2022-11-01T10:12:02.760Z,7080.00
2022-11-01T10:13:02.435Z,7496.00
2022-11-01T10:14:02.677Z,7792.00
2022-11-01T10:15:02.808Z,8160.00
2022-11-01T10:16:02.601Z,8200.00
2022-11-01T10:17:02.436Z,8580.00
2022-11-01T10:18:02.691Z,11092.00
2022-11-01T10:19:02.689Z,9100.00
2022-11-01T10:20:02.483Z,13388.00
2022-11-01T10:21:02.152Z,10276.00
2022-11-01T10:22:02.779Z,11168.00
2022-11-01T10:23:03.193Z,10264.00
2022-11-01T10:24:02.445Z,10876.00
2022-11-01T10:25:02.648Z,9472.00
2022-11-01T10:26:02.576Z,9700.00
2022-11-01T10:27:02.381Z,9880.00
2022-11-01T10:28:02.429Z,10648.00
2022-11-01T10:29:02.067Z,11012.00
2022-11-01T10:30:02.167Z,11284.00
2022-11-01T10:31:01.922Z,10212.00
2022-11-01T10:32:02.959Z,11136.00
2022-11-01T10:33:03.161Z,10896.00
2022-11-01T10:34:03.070Z,11264.00
2022-11-01T10:35:02.571Z,11228.00
2022-11-01T10:36:02.578Z,11056.00
2022-11-01T10:37:01.879Z,10968.00
2022-11-01T10:38:19.407Z,10840.00
2022-11-01T10:40:06.377Z,10608.00
2022-11-01T10:41:01.924Z,7924.00
2022-11-01T10:42:02.590Z,7160.00
2022-11-01T10:43:02.514Z,10080.00
2022-11-01T10:44:02.559Z,9984.00
2022-11-01T10:45:02.631Z,8736.00
2022-11-01T10:46:02.705Z,9880.00
2022-11-01T10:47:02.144Z,10184.00
2022-11-01T10:48:02.431Z,10096.00
2022-11-01T10:49:01.976Z,7356.00
2022-11-01T10:50:07.044Z,6956.00
2022-11-01T10:51:01.762Z,6732.00
2022-11-01T10:52:02.450Z,6420.00
2022-11-01T10:53:02.141Z,7036.00
2022-11-01T10:54:02.411Z,7136.00
2022-11-01T10:55:02.510Z,7036.00
2022-11-01T10:56:01.977Z,6936.00
2022-11-01T10:57:03.072Z,7016.00
2022-11-01T10:58:02.903Z,7080.00
2022-11-01T10:59:02.622Z,12864.00
2022-11-01T11:00:02.980Z,10204.00
2022-11-01T11:01:02.989Z,10412.00
2022-11-01T11:02:02.342Z,10036.00
2022-11-01T11:03:02.884Z,10196.00
2022-11-01T11:04:02.485Z,10120.00
2022-11-01T11:05:02.659Z,10040.00
2022-11-01T11:06:02.300Z,9152.00
2022-11-01T11:07:02.808Z,2932.00
2022-11-01T11:08:02.721Z,9744.00
2022-11-01T11:09:02.849Z,9572.00
2022-11-01T11:10:03.262Z,9888.00
2022-11-01T11:11:02.863Z,10012.00
2022-11-01T11:12:03.365Z,9820.00
2022-11-01T11:13:03.646Z,9652.00
2022-11-01T11:14:02.832Z,9340.00
2022-11-01T11:15:02.915Z,9260.00
2022-11-01T11:16:02.936Z,9200.00
2022-11-01T11:17:02.134Z,6304.00
2022-11-01T11:18:02.250Z,6268.00
2022-11-01T11:19:02.287Z,3996.00
2022-11-01T11:20:02.646Z,3376.00
2022-11-01T11:21:02.728Z,3688.00
2022-11-01T11:22:02.649Z,4032.00
2022-11-01T11:23:03.597Z,4112.00
2022-11-01T11:24:03.134Z,4168.00
2022-11-01T11:25:03.336Z,3756.00
2022-11-01T11:26:03.077Z,3976.00
2022-11-01T11:27:02.911Z,3796.00
2022-11-01T11:28:02.456Z,3888.00
2022-11-01T11:29:02.108Z,4080.00
2022-11-01T11:30:02.039Z,4032.00
2022-11-01T11:31:01.951Z,4248.00
2022-11-01T11:32:02.491Z,4784.00
2022-11-01T11:33:03.188Z,5492.00
2022-11-01T11:34:03.143Z,5792.00
2022-11-01T11:35:03.141Z,6268.00
2022-11-01T11:36:02.850Z,7212.00
2022-11-01T11:37:03.174Z,6732.00
2022-11-01T11:38:03.115Z,6964.00
2022-11-01T11:39:02.540Z,7384.00
2022-11-01T11:40:02.497Z,10252.00
2022-11-01T11:41:02.456Z,8436.00
2022-11-01T11:42:02.440Z,10000.00
2022-11-01T11:43:03.435Z,10616.00
2022-11-01T11:44:03.249Z,10168.00
2022-11-01T11:45:03.173Z,6568.00
2022-11-01T11:46:03.108Z,11080.00
2022-11-01T11:47:02.955Z,11352.00
2022-11-01T11:48:03.013Z,11628.00
2022-11-01T11:49:02.484Z,10772.00
2022-11-01T11:50:02.921Z,3560.00
2022-11-01T11:51:02.693Z,9200.00
2022-11-01T11:52:02.493Z,7548.00
2022-11-01T11:53:03.256Z,7376.00
2022-11-01T11:54:03.432Z,7228.00
2022-11-01T11:55:03.234Z,5584.00
2022-11-01T11:56:03.113Z,6128.00
2022-11-01T11:57:02.948Z,6904.00
2022-11-01T11:58:03.214Z,6372.00
2022-11-01T11:59:07.418Z,6348.00
2022-11-01T12:00:02.500Z,6272.00
2022-11-01T12:01:02.720Z,5272.00
2022-11-01T12:02:02.915Z,5720.00
2022-11-01T12:03:03.351Z,6464.00
2022-11-01T12:04:02.557Z,5636.00
2022-11-01T12:05:02.750Z,5320.00
2022-11-01T12:06:02.770Z,5428.00
2022-11-01T12:07:02.637Z,5312.00
2022-11-01T12:08:03.062Z,5172.00
2022-11-01T12:09:03.118Z,4692.00
2022-11-01T12:10:03.041Z,5232.00
2022-11-01T12:11:02.668Z,4016.00
2022-11-01T12:12:02.537Z,3696.00
2022-11-01T12:13:03.746Z,3916.00
2022-11-01T12:14:03.179Z,3268.00
2022-11-01T12:15:03.167Z,3428.00
2022-11-01T12:16:03.407Z,3160.00
2022-11-01T12:17:03.064Z,3184.00
2022-11-01T12:18:03.137Z,3132.00
2022-11-01T12:19:02.488Z,2896.00
2022-11-01T12:20:02.865Z,3020.00
2022-11-01T12:21:02.355Z,3060.00
2022-11-01T12:22:02.609Z,2944.00
2022-11-01T12:23:02.814Z,3196.00
2022-11-01T12:24:03.011Z,2852.00
2022-11-01T12:25:03.061Z,3516.00
2022-11-01T12:26:03.499Z,2716.00
2022-11-01T12:27:03.437Z,2816.00
2022-11-01T12:28:03.069Z,2856.00
2022-11-01T12:29:02.832Z,2948.00
2022-11-01T12:30:02.834Z,3028.00
2022-11-01T12:31:02.640Z,3056.00
2022-11-01T12:32:03.063Z,2916.00
2022-11-01T12:33:03.773Z,3152.00
2022-11-01T12:34:03.427Z,3012.00
2022-11-01T12:35:03.606Z,3048.00
2022-11-01T12:36:03.636Z,2880.00
2022-11-01T12:37:03.572Z,2844.00
2022-11-01T12:38:03.636Z,3092.00
2022-11-01T12:39:03.148Z,2996.00
2022-11-01T12:40:03.157Z,2860.00
2022-11-01T12:41:02.884Z,2824.00
2022-11-01T12:42:03.041Z,2780.00